Terminal Aerodrome Forecast
Issued by NWS

Home | Current Version | Previous Version | Text Only | Print | Product List | Glossary On
Versions: 1 2 3 4 5 6 7 8 9 10 11 12 13 14 15 16 17 18 19 20 21 22 23 24 25 26 27 28 29 30 31 32 33 34 35 36 37 38 39 40 41
000
FTUS45 KTFX 240520
TAFGTF
TAF
KGTF 240520Z 2406/2506 24010KT P6SM BKN070 BKN150
     FM241900 28011KT P6SM BKN070 BKN150
      TEMPO 2420/2424 VRB20G35KT -TSRA SCT030 OVC070CB
     FM250000 VRB06KT P6SM SCT070=

USA.gov is the U.S. government's official web portal to all federal, state and local government web resources and services.